createdAt,value
2019-03-10T00:02:26.293Z,7.50
2019-03-10T00:04:55.209Z,7.50
2019-03-10T00:07:24.265Z,7.50
2019-03-10T00:09:53.305Z,7.50
2019-03-10T00:12:22.369Z,7.40
2019-03-10T00:14:51.595Z,7.40
2019-03-10T00:17:20.837Z,7.40
2019-03-10T00:19:49.886Z,7.40
2019-03-10T00:22:36.694Z,7.40
2019-03-10T00:25:05.915Z,7.30
2019-03-10T00:27:35.010Z,7.40
2019-03-10T00:30:04.306Z,7.30
2019-03-10T00:32:33.277Z,7.30
2019-03-10T00:35:02.598Z,7.40
2019-03-10T00:37:31.643Z,7.40
2019-03-10T00:40:42.126Z,7.40
2019-03-10T00:43:40.278Z,7.30
2019-03-10T00:46:41.270Z,7.30
2019-03-10T00:49:51.353Z,7.40
2019-03-10T00:52:33.906Z,7.30
2019-03-10T00:55:02.938Z,7.30
2019-03-10T00:57:31.891Z,7.30
2019-03-10T01:00:01.338Z,7.30
2019-03-10T01:02:30.285Z,7.30
2019-03-10T01:04:59.322Z,7.20
2019-03-10T01:07:28.366Z,7.20
2019-03-10T01:09:57.406Z,7.20
2019-03-10T01:12:26.455Z,7.20
2019-03-10T01:14:55.406Z,7.20
2019-03-10T01:17:24.564Z,7.20
2019-03-10T01:19:53.927Z,7.20
2019-03-10T01:22:23.155Z,7.20
2019-03-10T01:24:52.119Z,7.20
2019-03-10T01:27:21.207Z,7.20
2019-03-10T01:29:50.238Z,7.20
2019-03-10T01:32:59.114Z,7.10
2019-03-10T01:35:31.814Z,7.10
2019-03-10T01:38:00.774Z,7.10
2019-03-10T01:40:30.015Z,7.10
2019-03-10T01:42:58.991Z,7.10
2019-03-10T01:45:27.982Z,7.10
2019-03-10T01:47:59.129Z,7.10
2019-03-10T01:50:27.692Z,7.00
2019-03-10T01:52:56.711Z,7.00
2019-03-10T01:55:25.702Z,7.10
2019-03-10T01:57:54.655Z,7.10
2019-03-10T02:00:23.718Z,7.10
2019-03-10T02:02:53.243Z,7.10
2019-03-10T02:05:22.267Z,7.10
2019-03-10T02:07:51.210Z,7.10
2019-03-10T02:10:20.183Z,7.10
2019-03-10T02:12:49.159Z,7.10
2019-03-10T02:15:18.207Z,7.10
2019-03-10T02:17:47.571Z,7.10
2019-03-10T02:20:17.993Z,7.10
2019-03-10T02:22:46.955Z,7.10
2019-03-10T02:25:15.971Z,7.10
2019-03-10T02:27:45.003Z,7.10
2019-03-10T02:30:16.817Z,7.10
2019-03-10T02:32:45.878Z,7.20
2019-03-10T02:35:14.930Z,7.20
2019-03-10T02:37:44.204Z,7.20
2019-03-10T02:40:13.328Z,7.20
2019-03-10T02:42:42.392Z,7.20
2019-03-10T02:45:11.851Z,7.20
2019-03-10T02:47:40.952Z,7.20
2019-03-10T02:50:10.696Z,7.20
2019-03-10T02:52:40.022Z,7.20
2019-03-10T02:55:09.366Z,7.20
2019-03-10T02:57:38.419Z,7.20
2019-03-10T03:00:09.122Z,7.20
2019-03-10T03:02:38.077Z,7.20
2019-03-10T03:05:08.151Z,7.20
2019-03-10T03:07:37.197Z,7.20
2019-03-10T03:10:08.168Z,7.20
2019-03-10T03:12:37.310Z,7.10
2019-03-10T03:15:06.685Z,7.10
2019-03-10T03:17:35.653Z,7.10
2019-03-10T03:20:05.186Z,7.10
2019-03-10T03:22:34.246Z,7.10
2019-03-10T03:25:03.328Z,7.10
2019-03-10T03:27:32.241Z,7.10
2019-03-10T03:30:01.774Z,7.10
2019-03-10T03:32:30.777Z,7.20
2019-03-10T03:34:59.819Z,7.10
2019-03-10T03:37:29.461Z,7.10
2019-03-10T03:39:59.301Z,7.10
2019-03-10T03:42:28.236Z,7.10
2019-03-10T03:44:57.557Z,7.10
2019-03-10T03:47:26.826Z,7.10
2019-03-10T03:49:55.768Z,7.10
2019-03-10T03:52:24.754Z,7.10
2019-03-10T03:54:53.738Z,7.10
2019-03-10T03:57:22.838Z,7.10
2019-03-10T03:59:52.138Z,7.10
2019-03-10T04:02:40.250Z,7.10
2019-03-10T04:05:09.617Z,7.20
2019-03-10T04:07:38.609Z,7.20
2019-03-10T04:10:07.765Z,7.20
2019-03-10T04:12:36.673Z,7.20
2019-03-10T04:15:05.752Z,7.10
2019-03-10T04:17:34.631Z,7.10
2019-03-10T04:20:03.777Z,7.10
2019-03-10T04:22:32.673Z,7.10
2019-03-10T04:25:01.710Z,7.10
2019-03-10T04:27:31.017Z,7.10
2019-03-10T04:29:59.962Z,7.10
2019-03-10T04:32:29.018Z,7.10
2019-03-10T04:34:58.170Z,7.10
2019-03-10T04:37:27.178Z,7.00
2019-03-10T04:39:56.069Z,7.00
2019-03-10T04:42:24.957Z,7.00
2019-03-10T04:44:54.217Z,6.90
2019-03-10T04:47:23.238Z,6.90
2019-03-10T04:49:52.262Z,6.90
2019-03-10T04:52:21.319Z,6.90
2019-03-10T04:55:08.094Z,6.90
2019-03-10T04:57:39.294Z,6.90
2019-03-10T05:00:08.470Z,6.80
2019-03-10T05:02:37.437Z,6.80
2019-03-10T05:05:06.506Z,6.80
2019-03-10T05:07:35.495Z,6.80
2019-03-10T05:10:04.618Z,6.70
2019-03-10T05:12:33.522Z,6.70
2019-03-10T05:15:02.554Z,6.70
2019-03-10T05:17:31.523Z,6.60
2019-03-10T05:20:00.527Z,6.60
2019-03-10T05:22:29.511Z,6.60
2019-03-10T05:24:58.398Z,6.60
2019-03-10T05:27:27.871Z,6.50
2019-03-10T05:29:56.839Z,6.50
2019-03-10T05:32:26.598Z,6.50
2019-03-10T05:34:55.754Z,6.50
2019-03-10T05:37:24.787Z,6.50
2019-03-10T05:39:53.659Z,6.50
2019-03-10T05:42:22.699Z,6.50
2019-03-10T05:44:51.771Z,6.50
2019-03-10T05:47:20.743Z,6.50
2019-03-10T05:49:49.630Z,6.60
2019-03-10T05:52:18.516Z,6.50
2019-03-10T12:51:40.947Z,6.40
2019-03-10T12:54:09.990Z,7.60
2019-03-10T12:56:40.711Z,7.60
2019-03-10T12:59:09.967Z,7.70
2019-03-10T13:01:38.868Z,7.80
2019-03-10T13:04:07.908Z,7.80
2019-03-10T13:06:36.877Z,7.80
2019-03-10T13:09:08.393Z,7.90
2019-03-10T13:11:37.389Z,7.90
2019-03-10T13:14:06.329Z,7.90
2019-03-10T13:16:35.341Z,8.00
2019-03-10T13:19:04.373Z,7.90
2019-03-10T13:21:33.356Z,7.90
2019-03-10T13:24:02.461Z,8.00
2019-03-10T13:26:31.501Z,8.00
2019-03-10T13:46:20.386Z,8.20
2019-03-10T13:48:50.029Z,9.20
